Time;durP1;ratioP1;P1;durP2;ratioP2;P2;SDS_P1;SDS_P2;PMS_P1;PMS_P2;Temp;Humidity;BMP_temperature;BMP_pressure;BME280_temperature;BME280_humidity;BME280_pressure;Samples;Min_cycle;Max_cycle;Signal;HPM_P1;HPM_P2
2022/11/29 00:00:32;;;;;;;17.27;9.93;;;;;;;;;;762303;184;917989;-61
2022/11/29 00:02:58;;;;;;;16.97;10.33;;;;;;;;;;752900;186;918602;-62
2022/11/29 00:05:24;;;;;;;19.93;11.03;;;;;;;;;;759138;181;816669;-59
2022/11/29 00:07:50;;;;;;;14.17;8.90;;;;;;;;;;748627;183;920044;-60
2022/11/29 00:10:16;;;;;;;14.55;9.32;;;;;;;;;;748206;184;920883;-60
2022/11/29 00:12:42;;;;;;;17.87;9.90;;;;;;;;;;755209;184;1021002;-59
2022/11/29 00:15:08;;;;;;;21.50;10.37;;;;;;;;;;756671;183;916634;-63
2022/11/29 00:17:33;;;;;;;17.17;10.80;;;;;;;;;;755725;183;902944;-59
2022/11/29 00:19:59;;;;;;;17.30;10.80;;;;;;;;;;763310;183;920761;-63
2022/11/29 00:22:25;;;;;;;15.17;10.43;;;;;;;;;;746641;186;916535;-61
2022/11/29 00:24:51;;;;;;;17.52;10.93;;;;;;;;;;742257;187;920768;-64
2022/11/29 00:27:17;;;;;;;15.90;10.80;;;;;;;;;;752667;186;919304;-59
2022/11/29 00:29:43;;;;;;;22.30;13.37;;;;;;;;;;742786;184;919425;-64
2022/11/29 00:32:08;;;;;;;19.97;12.10;;;;;;;;;;742623;187;921033;-60
2022/11/29 00:34:34;;;;;;;19.70;11.10;;;;;;;;;;751193;184;921265;-60
2022/11/29 00:37:00;;;;;;;16.90;9.17;;;;;;;;;;731023;190;819456;-60
2022/11/29 00:39:26;;;;;;;16.23;10.70;;;;;;;;;;742902;187;919441;-62
2022/11/29 00:41:52;;;;;;;17.87;10.57;;;;;;;;;;746571;186;824040;-59
2022/11/29 00:44:18;;;;;;;16.03;10.03;;;;;;;;;;774224;181;816674;-61
2022/11/29 00:46:44;;;;;;;15.93;10.40;;;;;;;;;;762413;181;919121;-60
2022/11/29 00:49:09;;;;;;;15.10;9.35;;;;;;;;;;763569;182;817276;-60
2022/11/29 00:51:35;;;;;;;16.40;9.30;;;;;;;;;;761498;183;773536;-64
2022/11/29 00:54:01;;;;;;;14.32;10.70;;;;;;;;;;760075;182;918105;-61
2022/11/29 00:56:27;;;;;;;18.20;13.03;;;;;;;;;;769725;180;918105;-63
2022/11/29 00:58:53;;;;;;;19.53;11.13;;;;;;;;;;772724;180;916158;-60
2022/11/29 01:01:19;;;;;;;20.23;12.10;;;;;;;;;;764179;180;903181;-60
2022/11/29 01:03:44;;;;;;;19.63;11.67;;;;;;;;;;764587;180;940110;-63
2022/11/29 01:06:10;;;;;;;16.20;9.80;;;;;;;;;;771266;179;938167;-64
2022/11/29 01:08:36;;;;;;;20.97;11.37;;;;;;;;;;772590;180;930848;-59
2022/11/29 01:11:18;;;;;;;15.67;10.27;;;;;;;;;;758935;183;918217;-60
2022/11/29 01:13:44;;;;;;;17.90;10.82;;;;;;;;;;757511;183;918276;-59
2022/11/29 01:16:09;;;;;;;20.40;12.17;;;;;;;;;;760711;183;919738;-63
2022/11/29 01:18:35;;;;;;;16.50;10.60;;;;;;;;;;770937;182;818640;-63
2022/11/29 01:21:01;;;;;;;19.57;11.57;;;;;;;;;;758592;183;918684;-63
2022/11/29 01:23:27;;;;;;;15.00;10.00;;;;;;;;;;757283;183;919659;-60
2022/11/29 01:26:04;;;;;;;16.92;12.00;;;;;;;;;;764945;184;917477;-64
2022/11/29 01:28:30;;;;;;;18.73;11.40;;;;;;;;;;770507;183;919283;-64
2022/11/29 01:30:55;;;;;;;18.40;11.23;;;;;;;;;;763996;181;919503;-63
2022/11/29 01:33:21;;;;;;;15.87;11.10;;;;;;;;;;759810;180;916752;-60
2022/11/29 01:35:47;;;;;;;16.70;9.83;;;;;;;;;;756714;181;919503;-60
2022/11/29 01:38:13;;;;;;;16.60;9.47;;;;;;;;;;766113;179;919984;-63
2022/11/29 01:40:39;;;;;;;17.73;10.73;;;;;;;;;;775540;179;817553;-63
2022/11/29 01:43:05;;;;;;;15.77;11.03;;;;;;;;;;773448;179;918093;-63
2022/11/29 01:45:31;;;;;;;15.90;9.93;;;;;;;;;;758086;182;816946;-63
2022/11/29 01:47:56;;;;;;;15.17;10.53;;;;;;;;;;759380;180;874347;-60
2022/11/29 01:50:22;;;;;;;16.27;10.03;;;;;;;;;;759422;184;918558;-61
2022/11/29 01:52:48;;;;;;;19.47;11.80;;;;;;;;;;765606;183;919012;-63
2022/11/29 01:55:14;;;;;;;18.97;12.07;;;;;;;;;;770001;181;818087;-63
2022/11/29 01:57:40;;;;;;;14.43;10.00;;;;;;;;;;756250;183;917039;-60
2022/11/29 02:00:07;;;;;;;15.40;10.80;;;;;;;;;;771057;179;817992;-59
2022/11/29 02:02:33;;;;;;;20.97;12.10;;;;;;;;;;749457;185;810807;-60
2022/11/29 02:04:59;;;;;;;17.50;11.07;;;;;;;;;;750237;184;916717;-64
2022/11/29 02:07:25;;;;;;;16.30;10.13;;;;;;;;;;755798;184;916018;-63
2022/11/29 02:09:50;;;;;;;15.80;9.93;;;;;;;;;;748363;183;928029;-63
2022/11/29 02:12:21;;;;;;;15.23;10.03;;;;;;;;;;760904;182;909785;-62
2022/11/29 02:14:49;;;;;;;20.00;11.97;;;;;;;;;;762091;179;918125;-63
2022/11/29 02:17:15;;;;;;;22.47;11.70;;;;;;;;;;748997;184;918296;-63
2022/11/29 02:19:41;;;;;;;15.57;9.50;;;;;;;;;;757518;183;919019;-60
2022/11/29 02:22:08;;;;;;;19.03;11.70;;;;;;;;;;761955;182;918937;-60
2022/11/29 02:24:49;;;;;;;18.10;11.40;;;;;;;;;;771133;182;893262;-59
2022/11/29 02:27:16;;;;;;;16.43;10.97;;;;;;;;;;766029;184;919543;-63
2022/11/29 02:29:48;;;;;;;16.50;11.03;;;;;;;;;;755940;183;920867;-59
2022/11/29 02:32:15;;;;;;;16.67;10.73;;;;;;;;;;743385;187;917932;-64
2022/11/29 02:34:56;;;;;;;14.23;9.80;;;;;;;;;;751125;184;918134;-61
2022/11/29 02:37:28;;;;;;;18.10;10.40;;;;;;;;;;746899;188;814893;-63
2022/11/29 02:40:09;;;;;;;19.63;10.83;;;;;;;;;;756482;183;919537;-64
2022/11/29 02:42:50;;;;;;;16.63;11.77;;;;;;;;;;779924;179;820737;-63
2022/11/29 02:45:31;;;;;;;16.80;11.87;;;;;;;;;;775792;179;816952;-63
2022/11/29 02:47:57;;;;;;;20.10;11.77;;;;;;;;;;757220;183;919471;-60
2022/11/29 02:50:24;;;;;;;25.90;13.03;;;;;;;;;;760284;182;816345;-60
2022/11/29 02:52:55;;;;;;;16.98;10.25;;;;;;;;;;749640;186;915385;-64
2022/11/29 02:55:21;;;;;;;19.83;13.17;;;;;;;;;;748630;186;914818;-63
2022/11/29 02:57:54;;;;;;;16.80;11.47;;;;;;;;;;767612;183;912921;-63
2022/11/29 03:00:19;;;;;;;16.70;12.63;;;;;;;;;;762016;183;919270;-62
2022/11/29 03:02:47;;;;;;;18.77;11.53;;;;;;;;;;762738;183;919342;-60
2022/11/29 03:05:29;;;;;;;19.83;12.70;;;;;;;;;;758114;184;919302;-61
2022/11/29 03:08:09;;;;;;;15.13;11.37;;;;;;;;;;755994;185;918976;-60
2022/11/29 03:10:56;;;;;;;16.05;10.90;;;;;;;;;;758275;184;919290;-63
2022/11/29 03:13:39;;;;;;;21.20;12.70;;;;;;;;;;759461;184;925666;-61
2022/11/29 03:16:06;;;;;;;19.70;12.63;;;;;;;;;;756669;183;918914;-64
2022/11/29 03:18:32;;;;;;;19.60;11.97;;;;;;;;;;764650;183;920194;-60
2022/11/29 03:21:13;;;;;;;22.00;11.23;;;;;;;;;;769136;179;899602;-60
2022/11/29 03:23:40;;;;;;;15.40;10.33;;;;;;;;;;743896;184;920329;-61
2022/11/29 03:26:08;;;;;;;16.27;9.80;;;;;;;;;;755503;183;934989;-63
2022/11/29 03:28:43;;;;;;;17.63;11.27;;;;;;;;;;770160;180;920951;-63
2022/11/29 03:31:09;;;;;;;15.23;10.80;;;;;;;;;;768987;183;917866;-60
2022/11/29 03:33:35;;;;;;;16.37;11.40;;;;;;;;;;755537;184;940674;-59
2022/11/29 03:36:01;;;;;;;13.40;9.83;;;;;;;;;;761399;183;918600;-63
2022/11/29 03:38:42;;;;;;;15.47;10.03;;;;;;;;;;768675;184;919115;-59
2022/11/29 03:41:19;;;;;;;20.13;13.17;;;;;;;;;;755950;187;628760;-58
2022/11/29 03:43:45;;;;;;;20.70;11.23;;;;;;;;;;734335;190;631614;-60
2022/11/29 03:46:11;;;;;;;17.17;10.90;;;;;;;;;;759409;182;919525;-59
2022/11/29 03:48:37;;;;;;;17.53;10.93;;;;;;;;;;759788;181;916212;-60
2022/11/29 03:51:06;;;;;;;18.10;11.43;;;;;;;;;;769664;181;918116;-61
2022/11/29 03:53:33;;;;;;;16.53;11.63;;;;;;;;;;748500;181;944902;-64
2022/11/29 03:55:59;;;;;;;16.70;11.77;;;;;;;;;;773407;181;615224;-59
2022/11/29 03:58:40;;;;;;;15.63;11.47;;;;;;;;;;769428;180;918077;-63
2022/11/29 04:01:08;;;;;;;17.60;10.13;;;;;;;;;;761880;183;625178;-62
2022/11/29 04:03:42;;;;;;;19.10;13.43;;;;;;;;;;770035;183;633649;-63
2022/11/29 04:06:14;;;;;;;15.77;11.53;;;;;;;;;;759241;184;634172;-62
2022/11/29 04:08:55;;;;;;;16.90;9.70;;;;;;;;;;763917;181;919235;-63
2022/11/29 04:11:35;;;;;;;17.77;10.40;;;;;;;;;;745311;184;922807;-63
2022/11/29 04:14:05;;;;;;;16.57;11.20;;;;;;;;;;747747;184;920270;-59
2022/11/29 04:16:49;;;;;;;16.67;11.10;;;;;;;;;;743549;183;923817;-59
2022/11/29 04:19:20;;;;;;;16.97;11.43;;;;;;;;;;747656;187;816622;-63
2022/11/29 04:21:47;;;;;;;13.77;10.13;;;;;;;;;;755795;184;918625;-63
2022/11/29 04:24:16;;;;;;;14.60;9.97;;;;;;;;;;749415;185;919386;-63
2022/11/29 04:26:47;;;;;;;16.53;11.20;;;;;;;;;;751342;185;920025;-60
2022/11/29 04:29:18;;;;;;;15.77;10.63;;;;;;;;;;745080;187;919972;-63
2022/11/29 04:32:03;;;;;;;15.47;11.20;;;;;;;;;;757654;183;818321;-61
2022/11/29 04:34:37;;;;;;;16.33;10.53;;;;;;;;;;754938;180;918728;-61
2022/11/29 04:37:04;;;;;;;14.60;9.27;;;;;;;;;;755530;182;909081;-63
2022/11/29 04:39:36;;;;;;;17.40;11.00;;;;;;;;;;755931;182;895157;-60
2022/11/29 04:42:20;;;;;;;17.40;10.97;;;;;;;;;;750747;183;920861;-63
2022/11/29 04:44:46;;;;;;;15.67;10.33;;;;;;;;;;758981;182;920714;-61
2022/11/29 04:47:15;;;;;;;15.57;10.33;;;;;;;;;;749906;183;919059;-64
2022/11/29 04:49:42;;;;;;;17.40;10.60;;;;;;;;;;760587;184;917803;-60
2022/11/29 04:52:21;;;;;;;14.03;9.50;;;;;;;;;;761358;180;918048;-60
2022/11/29 04:54:47;;;;;;;17.17;11.53;;;;;;;;;;759827;180;913775;-60
2022/11/29 04:57:19;;;;;;;14.10;9.30;;;;;;;;;;766764;180;917816;-63
2022/11/29 04:59:47;;;;;;;16.03;10.73;;;;;;;;;;756989;183;919209;-64
2022/11/29 05:02:16;;;;;;;14.90;9.40;;;;;;;;;;767910;183;715923;-64
2022/11/29 05:04:46;;;;;;;18.60;11.37;;;;;;;;;;758829;183;788360;-61
2022/11/29 05:07:15;;;;;;;16.17;10.10;;;;;;;;;;766095;179;919469;-60
2022/11/29 05:10:01;;;;;;;16.20;9.20;;;;;;;;;;769501;180;643155;-60
2022/11/29 05:12:28;;;;;;;13.67;9.43;;;;;;;;;;763087;182;909414;-60
2022/11/29 05:15:00;;;;;;;13.00;9.00;;;;;;;;;;766575;183;618186;-59
2022/11/29 05:17:30;;;;;;;16.17;11.03;;;;;;;;;;763764;182;635076;-60
2022/11/29 05:19:56;;;;;;;13.63;9.70;;;;;;;;;;768959;180;622920;-64
2022/11/29 05:22:37;;;;;;;17.67;10.73;;;;;;;;;;759487;181;818991;-63
2022/11/29 05:25:23;;;;;;;15.90;10.00;;;;;;;;;;765723;180;916719;-60
2022/11/29 05:27:50;;;;;;;13.40;8.50;;;;;;;;;;774668;180;916098;-63
2022/11/29 05:30:17;;;;;;;11.83;10.00;;;;;;;;;;769780;183;919097;-60
2022/11/29 05:32:43;;;;;;;15.43;10.53;;;;;;;;;;764745;183;919019;-62
2022/11/29 05:35:26;;;;;;;14.97;9.70;;;;;;;;;;764950;180;918813;-60
2022/11/29 05:37:52;;;;;;;19.80;9.50;;;;;;;;;;767706;179;919366;-63
2022/11/29 05:40:34;;;;;;;17.53;10.77;;;;;;;;;;762750;180;919718;-63
2022/11/29 05:43:01;;;;;;;14.70;10.07;;;;;;;;;;757093;183;920647;-61
2022/11/29 05:45:29;;;;;;;18.23;13.37;;;;;;;;;;771681;180;921515;-63
2022/11/29 05:47:57;;;;;;;16.43;10.40;;;;;;;;;;771086;178;915190;-64
2022/11/29 05:50:23;;;;;;;19.50;11.30;;;;;;;;;;776027;179;816633;-62
2022/11/29 05:52:49;;;;;;;13.70;9.10;;;;;;;;;;777807;179;818559;-63
2022/11/29 05:55:17;;;;;;;13.30;9.00;;;;;;;;;;769234;180;919424;-63
2022/11/29 05:57:42;;;;;;;17.40;10.60;;;;;;;;;;769628;180;854204;-64
2022/11/29 06:00:09;;;;;;;16.83;11.00;;;;;;;;;;765024;181;917005;-61
2022/11/29 06:02:40;;;;;;;15.87;11.37;;;;;;;;;;777917;180;906975;-63
2022/11/29 06:05:12;;;;;;;16.07;11.33;;;;;;;;;;754062;183;918468;-64
2022/11/29 06:07:38;;;;;;;14.60;9.23;;;;;;;;;;769233;180;895886;-61
2022/11/29 06:10:05;;;;;;;15.00;9.87;;;;;;;;;;765382;180;919651;-60
2022/11/29 06:12:34;;;;;;;16.77;9.27;;;;;;;;;;753399;182;919546;-63
2022/11/29 06:15:03;;;;;;;14.80;9.40;;;;;;;;;;759000;183;918231;-61
2022/11/29 06:17:35;;;;;;;15.47;11.27;;;;;;;;;;765457;183;919628;-60
2022/11/29 06:20:15;;;;;;;15.37;9.97;;;;;;;;;;758486;183;918065;-63
2022/11/29 06:22:46;;;;;;;16.17;10.63;;;;;;;;;;760974;182;919701;-60
2022/11/29 06:25:17;;;;;;;17.50;10.97;;;;;;;;;;766130;180;918128;-63
2022/11/29 06:28:00;;;;;;;14.23;8.10;;;;;;;;;;762173;179;920697;-60
2022/11/29 06:30:25;;;;;;;17.20;9.73;;;;;;;;;;762584;182;917458;-63
2022/11/29 06:32:51;;;;;;;14.83;10.07;;;;;;;;;;755410;181;923619;-61
2022/11/29 06:35:23;;;;;;;14.30;8.37;;;;;;;;;;771464;180;895156;-63
2022/11/29 06:37:49;;;;;;;13.30;9.53;;;;;;;;;;777206;179;914084;-60
2022/11/29 06:40:15;;;;;;;13.00;8.80;;;;;;;;;;767694;179;1408005;-61
2022/11/29 06:42:40;;;;;;;15.57;9.85;;;;;;;;;;763783;181;849511;-63
2022/11/29 06:45:07;;;;;;;13.90;9.77;;;;;;;;;;771449;180;919093;-60
2022/11/29 06:47:33;;;;;;;14.57;10.63;;;;;;;;;;757328;180;918682;-60
2022/11/29 06:50:00;;;;;;;16.17;10.30;;;;;;;;;;746712;184;819979;-61
2022/11/29 06:52:43;;;;;;;16.30;11.23;;;;;;;;;;744059;187;917410;-60
2022/11/29 06:55:09;;;;;;;15.90;11.03;;;;;;;;;;751691;184;918880;-63
2022/11/29 06:57:52;;;;;;;20.30;11.20;;;;;;;;;;755847;184;917586;-63
2022/11/29 07:00:18;;;;;;;20.23;9.90;;;;;;;;;;747132;186;917875;-61
2022/11/29 07:02:44;;;;;;;16.53;10.70;;;;;;;;;;744878;186;917730;-63
2022/11/29 07:05:20;;;;;;;14.40;9.10;;;;;;;;;;749145;184;919430;-58
2022/11/29 07:07:47;;;;;;;13.83;9.43;;;;;;;;;;759611;183;1006525;-61
2022/11/29 07:10:12;;;;;;;11.65;8.40;;;;;;;;;;769778;183;907866;-63
2022/11/29 07:12:38;;;;;;;17.10;10.03;;;;;;;;;;765161;182;915897;-63
2022/11/29 07:15:05;;;;;;;13.00;9.83;;;;;;;;;;764189;183;920099;-61
2022/11/29 07:17:32;;;;;;;19.80;10.70;;;;;;;;;;769312;183;819495;-60
2022/11/29 07:20:01;;;;;;;15.63;11.13;;;;;;;;;;762179;183;929392;-65
2022/11/29 07:22:27;;;;;;;15.37;9.17;;;;;;;;;;769040;180;918620;-60
2022/11/29 07:25:02;;;;;;;15.47;8.83;;;;;;;;;;743912;185;922205;-60
2022/11/29 07:27:29;;;;;;;16.47;9.80;;;;;;;;;;758783;184;922437;-63
2022/11/29 07:29:54;;;;;;;16.80;10.77;;;;;;;;;;748681;185;920283;-61
2022/11/29 07:32:22;;;;;;;14.57;9.63;;;;;;;;;;753928;184;920359;-60
2022/11/29 07:34:49;;;;;;;17.13;11.33;;;;;;;;;;741090;187;918992;-61
2022/11/29 07:37:30;;;;;;;18.63;10.40;;;;;;;;;;771153;183;918358;-61
2022/11/29 07:40:07;;;;;;;19.60;11.80;;;;;;;;;;758474;183;919288;-63
2022/11/29 07:42:39;;;;;;;16.50;10.53;;;;;;;;;;765653;180;815715;-63
2022/11/29 07:45:07;;;;;;;17.70;10.40;;;;;;;;;;753888;184;842319;-60
2022/11/29 07:47:32;;;;;;;14.80;9.77;;;;;;;;;;753073;184;916609;-64
2022/11/29 07:49:58;;;;;;;15.20;10.47;;;;;;;;;;764230;184;919423;-64
2022/11/29 07:52:24;;;;;;;19.63;12.43;;;;;;;;;;750736;184;918238;-59
2022/11/29 07:54:50;;;;;;;17.07;10.60;;;;;;;;;;763647;180;918784;-61
2022/11/29 07:57:16;;;;;;;16.00;9.65;;;;;;;;;;760667;183;919142;-61
2022/11/29 07:59:42;;;;;;;16.40;11.13;;;;;;;;;;769443;180;911931;-59
2022/11/29 08:02:08;;;;;;;16.60;11.10;;;;;;;;;;763159;180;919215;-63
2022/11/29 08:04:33;;;;;;;17.27;10.00;;;;;;;;;;753061;183;920959;-60
2022/11/29 08:06:59;;;;;;;20.73;11.00;;;;;;;;;;769369;179;920336;-63
2022/11/29 08:09:25;;;;;;;14.73;9.83;;;;;;;;;;770809;179;920714;-60
2022/11/29 08:11:51;;;;;;;12.30;9.03;;;;;;;;;;767467;177;907138;-63
2022/11/29 08:14:17;;;;;;;18.00;10.90;;;;;;;;;;764171;183;919211;-63
2022/11/29 08:16:43;;;;;;;12.57;10.05;;;;;;;;;;750949;186;919181;-64
2022/11/29 08:19:09;;;;;;;12.43;8.40;;;;;;;;;;763575;183;917601;-64
2022/11/29 08:21:35;;;;;;;12.85;8.18;;;;;;;;;;771426;179;910151;-64
2022/11/29 08:24:01;;;;;;;12.70;8.90;;;;;;;;;;769416;183;816138;-64
2022/11/29 08:26:28;;;;;;;14.20;9.13;;;;;;;;;;761243;183;919710;-60
2022/11/29 08:28:53;;;;;;;13.82;10.30;;;;;;;;;;773246;180;918959;-60
2022/11/29 08:31:19;;;;;;;14.90;10.10;;;;;;;;;;776263;180;918799;-60
2022/11/29 08:33:44;;;;;;;15.23;9.27;;;;;;;;;;762342;180;834430;-63
2022/11/29 08:36:11;;;;;;;13.53;9.03;;;;;;;;;;744553;186;912048;-64
2022/11/29 08:38:37;;;;;;;16.70;10.43;;;;;;;;;;757767;181;911159;-61
2022/11/29 08:41:03;;;;;;;17.20;10.13;;;;;;;;;;739984;187;879086;-61
2022/11/29 08:43:29;;;;;;;19.98;11.63;;;;;;;;;;732601;189;866413;-64
2022/11/29 08:45:55;;;;;;;15.10;10.80;;;;;;;;;;748821;187;919341;-64
2022/11/29 08:48:22;;;;;;;14.30;10.03;;;;;;;;;;761623;183;920233;-60
2022/11/29 08:50:48;;;;;;;15.97;10.60;;;;;;;;;;765278;179;919341;-63
2022/11/29 08:55:45;;;;;;;16.87;10.20;;;;;;;;;;766286;183;896691;-63
2022/11/29 08:58:11;;;;;;;15.17;9.00;;;;;;;;;;757593;183;919674;-63
2022/11/29 09:00:37;;;;;;;13.13;9.00;;;;;;;;;;761834;183;818500;-63
2022/11/29 09:05:35;;;;;;;11.67;9.23;;;;;;;;;;762723;182;918665;-61
2022/11/29 09:08:01;;;;;;;14.47;9.70;;;;;;;;;;759146;183;918958;-60
2022/11/29 09:10:26;;;;;;;15.20;9.40;;;;;;;;;;764962;183;919187;-60
2022/11/29 09:12:52;;;;;;;15.23;9.88;;;;;;;;;;774449;180;919343;-61
2022/11/29 09:15:18;;;;;;;18.07;11.07;;;;;;;;;;775451;179;911452;-63
2022/11/29 09:17:44;;;;;;;16.07;10.63;;;;;;;;;;770797;179;919438;-61
2022/11/29 09:20:11;;;;;;;15.63;8.15;;;;;;;;;;769710;180;917656;-64
2022/11/29 09:22:36;;;;;;;15.80;9.67;;;;;;;;;;763995;179;921035;-60
2022/11/29 09:25:02;;;;;;;16.47;10.17;;;;;;;;;;766236;181;919482;-60
2022/11/29 09:27:28;;;;;;;18.07;10.47;;;;;;;;;;758102;183;918400;-60
2022/11/29 09:29:54;;;;;;;14.50;10.00;;;;;;;;;;764572;183;919377;-60
2022/11/29 09:32:20;;;;;;;15.13;8.50;;;;;;;;;;747034;187;919480;-60
2022/11/29 09:34:45;;;;;;;15.40;9.90;;;;;;;;;;744784;184;919455;-61
2022/11/29 09:37:11;;;;;;;12.27;7.67;;;;;;;;;;754370;184;919322;-59
2022/11/29 09:39:39;;;;;;;10.93;7.67;;;;;;;;;;760576;184;919357;-63
2022/11/29 09:42:08;;;;;;;11.93;7.85;;;;;;;;;;745874;187;817331;-59
2022/11/29 09:44:34;;;;;;;11.93;7.50;;;;;;;;;;756273;184;919409;-63
2022/11/29 09:47:00;;;;;;;12.13;8.37;;;;;;;;;;767295;182;916391;-61
2022/11/29 09:49:26;;;;;;;12.80;8.20;;;;;;;;;;762722;180;918461;-65
2022/11/29 09:52:08;;;;;;;12.25;7.60;;;;;;;;;;759051;180;917877;-60
2022/11/29 09:54:34;;;;;;;12.60;8.43;;;;;;;;;;750894;184;816431;-60
2022/11/29 09:57:02;;;;;;;14.17;7.30;;;;;;;;;;756356;186;919063;-64
2022/11/29 09:59:27;;;;;;;12.27;7.80;;;;;;;;;;752006;186;919098;-64
2022/11/29 10:01:52;;;;;;;12.30;7.70;;;;;;;;;;773159;179;917630;-64
2022/11/29 10:04:18;;;;;;;14.15;8.63;;;;;;;;;;766640;181;916051;-60
2022/11/29 10:06:45;;;;;;;12.80;7.73;;;;;;;;;;763408;180;919677;-64
2022/11/29 10:09:12;;;;;;;13.10;8.37;;;;;;;;;;772019;180;915230;-60
2022/11/29 10:11:40;;;;;;;13.47;8.60;;;;;;;;;;772267;180;919559;-63
2022/11/29 10:14:08;;;;;;;13.47;7.80;;;;;;;;;;772397;180;918877;-61
2022/11/29 10:16:33;;;;;;;15.37;9.17;;;;;;;;;;756224;180;918829;-63
2022/11/29 10:18:59;;;;;;;13.60;8.70;;;;;;;;;;750668;184;1020144;-64
2022/11/29 10:21:26;;;;;;;12.93;7.53;;;;;;;;;;767140;184;918261;-60
2022/11/29 10:23:54;;;;;;;18.37;9.90;;;;;;;;;;762376;181;915101;-64
2022/11/29 10:26:21;;;;;;;12.80;8.60;;;;;;;;;;756833;184;917991;-63
2022/11/29 10:28:47;;;;;;;19.53;8.60;;;;;;;;;;758085;179;920053;-60
2022/11/29 10:31:13;;;;;;;13.00;9.63;;;;;;;;;;763602;183;846050;-64
2022/11/29 10:33:39;;;;;;;17.60;9.37;;;;;;;;;;755632;182;919189;-64
2022/11/29 10:36:05;;;;;;;12.77;7.10;;;;;;;;;;763770;183;919423;-63
2022/11/29 10:38:31;;;;;;;13.40;8.07;;;;;;;;;;769484;183;816410;-59
2022/11/29 10:40:57;;;;;;;15.50;8.87;;;;;;;;;;760738;183;923032;-61
2022/11/29 10:43:23;;;;;;;13.70;9.30;;;;;;;;;;761964;183;919348;-59
2022/11/29 10:45:52;;;;;;;15.23;7.93;;;;;;;;;;770022;183;893128;-60
2022/11/29 10:48:16;;;;;;;12.03;9.20;;;;;;;;;;772022;180;916589;-64
2022/11/29 10:50:42;;;;;;;12.77;7.77;;;;;;;;;;774861;179;950827;-61
2022/11/29 10:53:07;;;;;;;13.40;8.77;;;;;;;;;;773136;179;919495;-61
2022/11/29 10:55:33;;;;;;;19.40;9.27;;;;;;;;;;758914;183;919103;-64
2022/11/29 10:58:04;;;;;;;15.40;9.40;;;;;;;;;;762659;180;920393;-61
2022/11/29 11:00:30;;;;;;;13.73;7.93;;;;;;;;;;764842;179;918724;-63
2022/11/29 11:02:56;;;;;;;14.80;8.87;;;;;;;;;;761767;183;817338;-64
2022/11/29 11:05:22;;;;;;;14.03;9.57;;;;;;;;;;761138;183;919923;-65
2022/11/29 11:07:48;;;;;;;14.23;10.17;;;;;;;;;;762036;180;920072;-63
2022/11/29 11:10:17;;;;;;;14.35;9.30;;;;;;;;;;757675;182;915844;-60
2022/11/29 11:12:43;;;;;;;13.80;9.33;;;;;;;;;;761586;183;913027;-63
2022/11/29 11:15:11;;;;;;;21.23;11.77;;;;;;;;;;751867;184;816894;-62
2022/11/29 11:17:38;;;;;;;14.77;9.77;;;;;;;;;;754156;180;919438;-60
2022/11/29 11:20:04;;;;;;;13.80;9.47;;;;;;;;;;770913;180;812019;-61
2022/11/29 11:22:31;;;;;;;14.73;8.03;;;;;;;;;;758462;180;922610;-60
2022/11/29 11:24:56;;;;;;;13.00;8.77;;;;;;;;;;750234;185;918802;-61
2022/11/29 11:27:27;;;;;;;13.87;8.80;;;;;;;;;;747572;185;918714;-64
2022/11/29 11:29:53;;;;;;;14.67;8.73;;;;;;;;;;762455;184;943856;-60
2022/11/29 11:32:19;;;;;;;16.07;9.37;;;;;;;;;;747585;186;917725;-64
2022/11/29 11:34:45;;;;;;;12.07;8.70;;;;;;;;;;745401;186;853520;-64
2022/11/29 11:37:16;;;;;;;14.70;9.93;;;;;;;;;;760088;184;817259;-61
2022/11/29 11:39:41;;;;;;;12.80;8.60;;;;;;;;;;766534;180;920955;-60
2022/11/29 11:44:54;;;;;;;15.50;10.00;;;;;;;;;;763016;181;919090;-63
2022/11/29 11:47:23;;;;;;;15.17;9.03;;;;;;;;;;756599;181;931060;-64
2022/11/29 11:49:49;;;;;;;16.20;10.27;;;;;;;;;;753664;184;922156;-64
2022/11/29 11:52:15;;;;;;;12.93;8.80;;;;;;;;;;765625;181;919829;-64
2022/11/29 11:54:41;;;;;;;17.90;10.47;;;;;;;;;;764494;180;978890;-63
2022/11/29 11:57:06;;;;;;;14.60;9.60;;;;;;;;;;745070;185;920178;-61
2022/11/29 11:59:32;;;;;;;16.93;10.17;;;;;;;;;;764372;183;837741;-64
2022/11/29 12:01:58;;;;;;;14.57;9.87;;;;;;;;;;763930;181;920694;-59
2022/11/29 12:04:24;;;;;;;13.80;9.50;;;;;;;;;;761067;181;816696;-63
2022/11/29 12:06:51;;;;;;;13.20;9.50;;;;;;;;;;750355;186;918583;-61
2022/11/29 12:09:18;;;;;;;15.60;10.93;;;;;;;;;;757680;183;816281;-61
2022/11/29 12:11:43;;;;;;;15.67;9.73;;;;;;;;;;757722;185;917157;-63
2022/11/29 12:14:10;;;;;;;13.45;8.77;;;;;;;;;;758300;183;917902;-63
2022/11/29 12:16:36;;;;;;;16.20;9.53;;;;;;;;;;754854;185;920911;-60
2022/11/29 12:19:02;;;;;;;15.50;9.03;;;;;;;;;;757581;183;920525;-65
2022/11/29 12:21:28;;;;;;;13.30;8.33;;;;;;;;;;758312;183;917106;-64
2022/11/29 12:24:09;;;;;;;16.37;9.37;;;;;;;;;;764161;183;1175283;-63
2022/11/29 12:26:36;;;;;;;13.27;8.87;;;;;;;;;;753587;186;919033;-60
2022/11/29 12:29:01;;;;;;;15.03;8.97;;;;;;;;;;760151;183;919570;-60
2022/11/29 12:31:44;;;;;;;13.10;8.63;;;;;;;;;;739999;187;918400;-64
2022/11/29 12:34:16;;;;;;;11.80;7.97;;;;;;;;;;758225;181;919489;-61
2022/11/29 12:36:49;;;;;;;13.23;9.15;;;;;;;;;;752870;184;915727;-61
2022/11/29 12:39:30;;;;;;;15.60;8.50;;;;;;;;;;762601;181;915807;-64
2022/11/29 12:41:56;;;;;;;14.80;11.00;;;;;;;;;;744735;187;855628;-60
2022/11/29 12:44:27;;;;;;;14.43;8.87;;;;;;;;;;768452;180;916103;-63
2022/11/29 12:46:53;;;;;;;15.60;8.57;;;;;;;;;;736844;187;918838;-64
2022/11/29 12:49:22;;;;;;;16.83;10.23;;;;;;;;;;760156;183;918727;-63
2022/11/29 12:51:48;;;;;;;13.97;9.50;;;;;;;;;;775779;180;914455;-64
2022/11/29 12:54:18;;;;;;;15.10;10.73;;;;;;;;;;757526;183;920003;-61
2022/11/29 12:57:00;;;;;;;14.27;9.40;;;;;;;;;;759397;182;918868;-59
2022/11/29 12:59:31;;;;;;;12.87;8.70;;;;;;;;;;762364;181;919189;-65
2022/11/29 13:01:57;;;;;;;11.97;8.07;;;;;;;;;;759981;183;919126;-61
2022/11/29 13:04:40;;;;;;;16.10;11.00;;;;;;;;;;764076;183;918594;-63
2022/11/29 13:07:10;;;;;;;17.83;10.47;;;;;;;;;;759428;183;919325;-62
2022/11/29 13:09:42;;;;;;;16.50;10.70;;;;;;;;;;767360;179;914181;-62
2022/11/29 13:12:21;;;;;;;13.97;9.43;;;;;;;;;;768765;179;1020060;-59
2022/11/29 13:14:52;;;;;;;15.70;10.02;;;;;;;;;;760105;183;918620;-63
2022/11/29 13:17:19;;;;;;;14.03;9.07;;;;;;;;;;762992;183;919659;-64
2022/11/29 13:19:45;;;;;;;16.10;9.85;;;;;;;;;;771583;180;918680;-63
2022/11/29 13:22:16;;;;;;;14.97;10.47;;;;;;;;;;764228;180;919576;-63
2022/11/29 13:24:42;;;;;;;14.63;10.50;;;;;;;;;;764631;180;919165;-63
2022/11/29 13:27:08;;;;;;;17.60;11.65;;;;;;;;;;768242;183;918436;-61
2022/11/29 13:29:34;;;;;;;15.47;10.60;;;;;;;;;;753368;185;917139;-63
2022/11/29 13:31:59;;;;;;;18.27;12.13;;;;;;;;;;756220;184;919992;-61
2022/11/29 13:34:27;;;;;;;18.35;11.27;;;;;;;;;;760719;180;916887;-63
2022/11/29 13:37:14;;;;;;;17.43;12.03;;;;;;;;;;762091;184;917001;-63
2022/11/29 13:39:54;;;;;;;23.00;12.63;;;;;;;;;;762910;184;918600;-61
2022/11/29 13:42:35;;;;;;;23.47;12.87;;;;;;;;;;773765;180;873333;-61
2022/11/29 13:45:04;;;;;;;24.57;14.47;;;;;;;;;;766857;179;919749;-64
2022/11/29 13:47:30;;;;;;;18.50;12.10;;;;;;;;;;770161;179;917284;-61
2022/11/29 13:50:01;;;;;;;18.63;11.83;;;;;;;;;;767216;179;916901;-63
2022/11/29 13:52:25;;;;;;;21.07;13.70;;;;;;;;;;780154;179;920456;-61
2022/11/29 13:54:57;;;;;;;22.50;13.40;;;;;;;;;;773349;179;919215;-63
2022/11/29 13:57:23;;;;;;;22.60;14.07;;;;;;;;;;759328;180;919485;-60
2022/11/29 13:59:49;;;;;;;21.87;13.73;;;;;;;;;;770399;180;919285;-64
2022/11/29 14:02:20;;;;;;;23.97;13.87;;;;;;;;;;781740;179;816133;-61
2022/11/29 14:04:46;;;;;;;22.83;14.60;;;;;;;;;;768036;183;816541;-59
2022/11/29 14:07:13;;;;;;;25.17;13.90;;;;;;;;;;764108;183;918514;-60
2022/11/29 14:09:45;;;;;;;18.95;12.60;;;;;;;;;;764788;180;916384;-63
2022/11/29 14:12:17;;;;;;;21.93;13.10;;;;;;;;;;768422;182;934869;-64
2022/11/29 14:14:46;;;;;;;20.65;13.25;;;;;;;;;;755885;183;860702;-59
2022/11/29 14:17:18;;;;;;;22.90;13.53;;;;;;;;;;751708;184;926374;-60
2022/11/29 14:19:44;;;;;;;21.10;13.50;;;;;;;;;;752036;183;919322;-63
2022/11/29 14:22:15;;;;;;;20.25;13.25;;;;;;;;;;759239;180;924305;-63
2022/11/29 14:24:41;;;;;;;24.63;14.40;;;;;;;;;;753357;184;918449;-63